createdAt,value
2018-09-01T00:00:14.722Z,101739.08
2018-09-01T00:02:41.508Z,101743.55
2018-09-01T00:05:08.212Z,101747.53
2018-09-01T00:07:35.919Z,101743.77
2018-09-01T00:10:03.432Z,101738.72
2018-09-01T00:12:31.333Z,101732.17
2018-09-01T00:14:58.972Z,101728.68
2018-09-01T00:17:29.245Z,101730.36
2018-09-01T00:19:58.139Z,101725.80
2018-09-01T00:22:26.724Z,101729.01
2018-09-01T00:24:53.492Z,101738.31
2018-09-01T00:27:21.508Z,101732.45
2018-09-01T00:29:48.526Z,101727.00
2018-09-01T00:32:16.220Z,101730.84
2018-09-01T00:34:44.812Z,101726.64
2018-09-01T00:37:13.472Z,101724.69
2018-09-01T00:39:45.155Z,101733.84
2018-09-01T00:42:13.926Z,101736.85
2018-09-01T00:44:40.713Z,101740.77
2018-09-01T00:47:08.599Z,101745.59
2018-09-01T00:49:36.112Z,101752.01
2018-09-01T00:52:03.652Z,101755.73
2018-09-01T00:54:31.133Z,101751.47
2018-09-01T00:56:57.797Z,101757.06
2018-09-01T00:59:26.697Z,101751.88
2018-09-01T01:01:55.452Z,101756.58
2018-09-01T01:04:23.121Z,101760.56
2018-09-01T01:06:50.729Z,101766.72
2018-09-01T01:09:17.403Z,101773.01
2018-09-01T01:11:46.116Z,101771.39
2018-09-01T01:14:14.025Z,101769.64
2018-09-01T01:16:40.733Z,101760.92
2018-09-01T01:19:07.376Z,101757.55
2018-09-01T01:21:34.184Z,101777.34
2018-09-01T01:24:01.885Z,101773.98
2018-09-01T01:26:28.552Z,101778.19
2018-09-01T01:28:55.879Z,101772.30
2018-09-01T01:31:22.508Z,101775.31
2018-09-01T01:33:49.164Z,101779.30
2018-09-01T01:36:15.829Z,101776.51
2018-09-01T01:38:43.473Z,101772.72
2018-09-01T01:41:11.087Z,101768.19
2018-09-01T01:43:37.732Z,101765.11
2018-09-01T01:46:04.437Z,101772.36
2018-09-01T01:48:31.958Z,101773.14
2018-09-01T01:50:59.705Z,101774.66
2018-09-01T01:53:26.368Z,101774.95
2018-09-01T01:55:53.033Z,101768.64
2018-09-01T01:58:20.541Z,101778.94
2018-09-01T02:00:48.145Z,101771.88
2018-09-01T02:03:15.781Z,101769.58
2018-09-01T02:05:43.508Z,101774.41
2018-09-01T02:08:11.147Z,101777.69
2018-09-01T02:10:38.848Z,101776.00
2018-09-01T02:13:06.492Z,101781.31
2018-09-01T02:15:33.194Z,101787.59
2018-09-01T02:18:00.689Z,101796.02
2018-09-01T02:20:28.125Z,101801.11
2018-09-01T02:22:55.559Z,101811.12
2018-09-01T02:25:23.195Z,101813.68
2018-09-01T02:27:50.821Z,101810.41
2018-09-01T02:30:18.482Z,101812.84
2018-09-01T02:32:46.141Z,101816.82
2018-09-01T02:35:14.734Z,101821.16
2018-09-01T02:37:42.360Z,101810.63
2018-09-01T02:40:09.914Z,101815.36
2018-09-01T02:42:37.585Z,101811.73
2018-09-01T02:45:05.624Z,101812.35
2018-09-01T02:47:33.099Z,101813.19
2018-09-01T02:49:59.781Z,101811.96
2018-09-01T02:52:27.445Z,101816.82
2018-09-01T02:54:56.079Z,101816.82
2018-09-01T02:57:22.784Z,101811.96
2018-09-01T02:59:50.405Z,101816.82
2018-09-01T03:02:22.644Z,101813.29
2018-09-01T03:04:50.212Z,101811.95
2018-09-01T03:07:17.682Z,101810.89
2018-09-01T03:09:45.346Z,101815.36
2018-09-01T03:12:13.937Z,101813.64
2018-09-01T03:14:41.562Z,101812.80
2018-09-01T03:17:09.546Z,101814.88
2018-09-01T03:19:36.240Z,101812.70
2018-09-01T03:22:03.859Z,101809.17
2018-09-01T03:24:31.356Z,101817.53
2018-09-01T03:26:58.978Z,101817.27
2018-09-01T03:29:25.634Z,101821.13
2018-09-01T03:31:53.125Z,101817.89
2018-09-01T03:34:19.780Z,101827.19
2018-09-01T03:36:47.247Z,101826.34
2018-09-01T03:39:15.008Z,101821.88
2018-09-01T03:41:41.668Z,101818.25
2018-09-01T03:44:08.420Z,101820.29
2018-09-01T03:46:35.103Z,101818.86
2018-09-01T03:49:04.460Z,101816.56
2018-09-01T03:51:32.010Z,101816.69
2018-09-01T03:53:59.647Z,101821.39
2018-09-01T03:56:27.213Z,101823.30
2018-09-01T03:58:56.106Z,101822.45
2018-09-01T04:01:23.623Z,101815.09
2018-09-01T04:03:50.280Z,101824.49
2018-09-01T04:06:18.085Z,101820.28
2018-09-01T04:08:44.867Z,101814.84
2018-09-01T04:11:11.523Z,101822.36
2018-09-01T04:13:38.188Z,101828.74
2018-09-01T04:16:05.673Z,101827.54
2018-09-01T04:18:32.332Z,101826.57
2018-09-01T04:20:59.002Z,101830.20
2018-09-01T04:23:26.664Z,101828.38
2018-09-01T04:25:53.344Z,101826.92
2018-09-01T04:28:20.128Z,101836.00
2018-09-01T04:30:46.796Z,101834.18
2018-09-01T04:33:13.488Z,101831.88
2018-09-01T04:35:40.129Z,101828.52
2018-09-01T04:38:07.741Z,101837.06
2018-09-01T04:40:34.445Z,101835.25
2018-09-01T04:43:01.248Z,101830.42
2018-09-01T04:45:27.924Z,101842.38
2018-09-01T04:47:55.777Z,101847.11
2018-09-01T04:50:22.438Z,101850.61
2018-09-01T04:52:49.460Z,101853.75
2018-09-01T04:55:16.132Z,101860.00
2018-09-01T04:57:42.784Z,101858.58
2018-09-01T05:00:09.749Z,101864.73
2018-09-01T05:02:36.398Z,101864.86
2018-09-01T05:05:03.060Z,101874.61
2018-09-01T05:07:29.741Z,101876.91
2018-09-01T05:09:56.584Z,101883.55
2018-09-01T05:12:23.263Z,101882.00
2018-09-01T05:14:50.661Z,101886.56
2018-09-01T05:17:17.332Z,101889.84
2018-09-01T05:19:44.009Z,101887.19
2018-09-01T05:22:10.863Z,101885.23
2018-09-01T05:24:37.748Z,101894.66
2018-09-01T05:27:04.472Z,101890.09
2018-09-01T05:29:31.145Z,101884.78
2018-09-01T05:31:57.801Z,101883.55
2018-09-01T05:34:26.588Z,101887.53
2018-09-01T05:36:55.385Z,101891.78
2018-09-01T05:39:22.068Z,101888.64
2018-09-01T05:41:50.153Z,101886.34
2018-09-01T05:44:17.181Z,101889.84
2018-09-01T05:46:44.957Z,101891.66
2018-09-01T05:49:12.561Z,101895.52
2018-09-01T05:51:39.349Z,101899.50
2018-09-01T05:54:06.021Z,101897.58
2018-09-01T05:56:32.701Z,101903.97
2018-09-01T05:58:59.409Z,101912.47
2018-09-01T06:01:26.316Z,101914.38
2018-09-01T06:03:53.012Z,101913.53
2018-09-01T06:06:21.296Z,101910.03
2018-09-01T06:08:49.578Z,101919.33
2018-09-01T06:11:17.224Z,101915.44
2018-09-01T06:13:44.856Z,101917.87
2018-09-01T06:16:12.488Z,101910.66
2018-09-01T06:18:39.175Z,101911.23
2018-09-01T06:21:05.868Z,101910.88
2018-09-01T06:23:32.810Z,101909.19
2018-09-01T06:25:59.529Z,101903.61
2018-09-01T06:28:45.172Z,101903.97
2018-09-01T06:31:12.845Z,101917.86
2018-09-01T06:33:39.976Z,101917.52
2018-09-01T06:36:07.751Z,101915.13
2018-09-01T06:38:35.318Z,101917.52
2018-09-01T06:41:01.969Z,101918.85
2018-09-01T06:43:28.637Z,101917.30
2018-09-01T06:45:55.381Z,101920.93
2018-09-01T06:48:22.040Z,101930.40
2018-09-01T06:50:49.832Z,101927.48
2018-09-01T06:53:17.392Z,101933.64
2018-09-01T06:55:44.148Z,101933.77
2018-09-01T06:58:10.840Z,101937.04
2018-09-01T07:00:38.453Z,101931.37
2018-09-01T07:03:06.022Z,101935.81
2018-09-01T07:05:33.629Z,101938.96
2018-09-01T07:08:01.260Z,101933.64
2018-09-01T07:10:27.908Z,101935.72
2018-09-01T07:12:57.037Z,101933.78
2018-09-01T07:15:25.676Z,101938.73
2018-09-01T07:17:53.284Z,101934.58
2018-09-01T07:20:30.686Z,101937.56
2018-09-01T07:23:01.710Z,101937.56
2018-09-01T07:25:31.686Z,101942.89
2018-09-01T07:27:59.302Z,101939.53
2018-09-01T07:30:26.967Z,101945.53
2018-09-01T07:32:53.575Z,101945.67
2018-09-01T07:35:21.176Z,101945.89
2018-09-01T07:37:47.877Z,101943.25
2018-09-01T07:40:14.544Z,101939.70
2018-09-01T07:42:42.148Z,101942.06
2018-09-01T07:45:08.845Z,101942.71
2018-09-01T07:47:35.553Z,101954.95
2018-09-01T07:50:02.291Z,101953.48
2018-09-01T07:52:29.895Z,101957.95
2018-09-01T07:54:57.614Z,101962.30
2018-09-01T07:57:26.193Z,101960.00
2018-09-01T07:59:53.624Z,101960.27
2018-09-01T08:02:21.346Z,101956.02
2018-09-01T08:04:49.936Z,101962.44
2018-09-01T08:07:16.684Z,101967.40
2018-09-01T08:09:44.165Z,101969.67
2018-09-01T08:12:11.010Z,101967.27
2018-09-01T08:14:37.922Z,101975.38
2018-09-01T08:17:05.433Z,101975.38
2018-09-01T08:19:32.958Z,101975.61
2018-09-01T08:22:00.622Z,101978.39
2018-09-01T08:24:27.320Z,101978.39
2018-09-01T08:26:55.063Z,101972.72
2018-09-01T08:29:22.818Z,101978.63
2018-09-01T08:31:50.571Z,101975.73
2018-09-01T08:34:17.281Z,101981.05
2018-09-01T08:36:44.013Z,101981.05
2018-09-01T08:39:10.873Z,101982.26
2018-09-01T08:41:37.529Z,101979.98
2018-09-01T08:44:05.176Z,101976.84
2018-09-01T08:46:31.827Z,101982.65
2018-09-01T08:48:59.329Z,101981.80
2018-09-01T08:51:27.046Z,101980.56
2018-09-01T08:53:55.453Z,101976.84
2018-09-01T08:56:23.149Z,101984.55
2018-09-01T08:58:50.841Z,101984.91
2018-09-01T09:01:19.096Z,101988.06
2018-09-01T09:03:45.860Z,101993.16
2018-09-01T09:06:13.351Z,101989.17
2018-09-01T09:08:40.025Z,101989.87
2018-09-01T09:11:07.167Z,101991.34
2018-09-01T09:13:34.632Z,102001.39
2018-09-01T09:16:01.292Z,101999.44
2018-09-01T09:18:28.832Z,101997.27
2018-09-01T09:20:56.343Z,101994.75
2018-09-01T09:23:23.033Z,101993.06
2018-09-01T09:25:51.381Z,101993.77
2018-09-01T09:28:18.076Z,101995.95
2018-09-01T09:30:44.740Z,101996.30
2018-09-01T09:33:13.293Z,101991.11
2018-09-01T09:35:40.727Z,101990.27
2018-09-01T09:38:07.406Z,101980.48
2018-09-01T09:40:34.053Z,101982.66
2018-09-01T09:43:07.254Z,101983.50
2018-09-01T09:45:33.948Z,101983.86
2018-09-01T09:48:01.572Z,101977.69
2018-09-01T09:50:29.093Z,101986.64
2018-09-01T09:52:57.705Z,101983.86
2018-09-01T09:55:24.965Z,101980.36
2018-09-01T09:57:51.621Z,101982.30
2018-09-01T10:00:24.935Z,101988.45
2018-09-01T10:02:52.373Z,101989.87
2018-09-01T10:05:20.034Z,101989.78
2018-09-01T10:07:47.650Z,101987.58
2018-09-01T10:10:14.577Z,101991.20
2018-09-01T10:12:41.224Z,101990.72
2018-09-01T10:15:08.880Z,101990.23
2018-09-01T10:17:36.541Z,101993.77
2018-09-01T10:20:03.291Z,101993.98
2018-09-01T10:22:30.740Z,101996.03
2018-09-01T10:24:58.377Z,101998.20
2018-09-01T10:27:26.077Z,101996.64
2018-09-01T10:29:52.739Z,101985.53
2018-09-01T10:32:20.605Z,101986.73
2018-09-01T10:34:47.240Z,101989.65
2018-09-01T10:37:14.020Z,101997.05
2018-09-01T10:39:40.673Z,101996.00
2018-09-01T10:42:08.249Z,101991.88
2018-09-01T10:44:34.917Z,101989.13
2018-09-01T10:47:01.608Z,101984.88
2018-09-01T10:49:28.363Z,101987.31
2018-09-01T10:51:55.529Z,101982.12
2018-09-01T10:54:22.179Z,101981.14
2018-09-01T10:56:51.142Z,101974.49
2018-09-01T10:59:17.915Z,101977.51
2018-09-01T11:01:44.537Z,101976.53
2018-09-01T11:04:12.921Z,101981.98
2018-09-01T11:06:39.718Z,101972.81
2018-09-01T11:09:08.856Z,101975.83
2018-09-01T11:11:35.501Z,101975.47
2018-09-01T11:14:02.185Z,101983.19
2018-09-01T11:16:28.886Z,101980.17
2018-09-01T11:18:56.423Z,101976.80
2018-09-01T11:21:24.053Z,101973.88
2018-09-01T11:23:52.305Z,101973.88
2018-09-01T11:26:21.176Z,101979.55
2018-09-01T11:28:47.830Z,101973.88
2018-09-01T11:31:15.499Z,101977.52
2018-09-01T11:33:42.248Z,101979.33
2018-09-01T11:36:08.926Z,101977.02
2018-09-01T11:38:35.583Z,101973.39
2018-09-01T11:41:02.341Z,101981.38
2018-09-01T11:43:29.056Z,101976.67
2018-09-01T11:45:56.401Z,101967.84
2018-09-01T11:48:23.092Z,101971.09
2018-09-01T11:50:50.811Z,101974.98
2018-09-01T11:53:19.765Z,101967.95
2018-09-01T11:55:46.296Z,101965.28
2018-09-01T11:58:13.586Z,101960.94
2018-09-01T12:00:40.234Z,101956.95
2018-09-01T12:03:07.565Z,101964.44
2018-09-01T12:05:34.261Z,101956.72
2018-09-01T12:08:00.909Z,101956.47
2018-09-01T12:10:27.668Z,101962.63
2018-09-01T12:12:55.110Z,101952.12
2018-09-01T12:15:21.745Z,101957.69
2018-09-01T12:17:49.572Z,101955.03
2018-09-01T12:20:17.096Z,101950.30
2018-09-01T12:22:43.792Z,101948.13
2018-09-01T12:25:11.364Z,101945.95
2018-09-01T12:27:38.827Z,101955.87
2018-09-01T12:30:05.481Z,101950.92
2018-09-01T12:32:33.040Z,101945.24
2018-09-01T12:34:59.796Z,101948.13
2018-09-01T12:37:27.267Z,101947.28
2018-09-01T12:39:53.921Z,101938.47
2018-09-01T12:42:20.649Z,101933.27
2018-09-01T12:44:47.285Z,101936.39
2018-09-01T12:47:14.872Z,101935.06
2018-09-01T12:49:42.432Z,101947.03
2018-09-01T12:52:09.110Z,101945.24
2018-09-01T12:54:35.756Z,101943.52
2018-09-01T12:57:02.524Z,101948.48
2018-09-01T12:59:29.340Z,101948.00
2018-09-01T13:01:56.500Z,101940.02
2018-09-01T13:04:23.160Z,101943.66
2018-09-01T13:06:51.764Z,101942.68
2018-09-01T13:09:19.936Z,101941.48
2018-09-01T13:11:46.581Z,101936.03
2018-09-01T13:14:14.112Z,101935.19
2018-09-01T13:16:40.812Z,101944.85
2018-09-01T13:19:07.577Z,101943.91
2018-09-01T13:21:34.217Z,101939.44
2018-09-01T13:24:01.793Z,101938.59
2018-09-01T13:26:28.440Z,101936.88
2018-09-01T13:28:55.143Z,101939.53
2018-09-01T13:31:21.788Z,101938.83
2018-09-01T13:33:49.504Z,101941.84
2018-09-01T13:36:16.148Z,101947.16
2018-09-01T13:38:42.858Z,101937.36
2018-09-01T13:41:09.525Z,101936.16
2018-09-01T13:43:36.181Z,101941.00
2018-09-01T13:46:02.974Z,101937.72
2018-09-01T13:48:29.702Z,101943.39
2018-09-01T13:50:56.364Z,101949.59
2018-09-01T13:53:27.582Z,101940.38
2018-09-01T13:55:56.053Z,101942.94
2018-09-01T13:58:23.648Z,101946.57
2018-09-01T14:00:50.318Z,101944.63
2018-09-01T14:03:17.007Z,101946.19
2018-09-01T14:05:44.651Z,101941.97
2018-09-01T14:08:11.280Z,101940.16
2018-09-01T14:10:38.006Z,101942.33
2018-09-01T14:13:05.656Z,101948.61
2018-09-01T14:15:33.325Z,101947.64
2018-09-01T14:18:00.936Z,101945.95
2018-09-01T14:20:28.673Z,101945.83
2018-09-01T14:22:56.301Z,101947.41
2018-09-01T14:25:22.992Z,101948.73
2018-09-01T14:27:50.616Z,101941.47
2018-09-01T14:30:19.396Z,101944.75
2018-09-01T14:32:46.058Z,101946.80
2018-09-01T14:35:13.713Z,101944.63
2018-09-01T14:37:40.520Z,101945.24
2018-09-01T14:40:08.141Z,101949.23
2018-09-01T14:42:34.800Z,101947.64
2018-09-01T14:45:01.520Z,101946.80
2018-09-01T14:47:28.982Z,101946.93
2018-09-01T14:49:56.512Z,101942.81
2018-09-01T14:52:23.188Z,101952.61
2018-09-01T14:54:51.356Z,101950.53
2018-09-01T14:57:20.421Z,101951.86
2018-09-01T14:59:49.761Z,101958.16
2018-09-01T15:02:16.624Z,101958.16
2018-09-01T15:04:44.089Z,101961.30
2018-09-01T15:07:11.763Z,101963.95
2018-09-01T15:09:39.341Z,101959.35
2018-09-01T15:12:07.070Z,101962.63
2018-09-01T15:14:34.661Z,101958.77
2018-09-01T15:17:01.353Z,101958.02
2018-09-01T15:19:29.104Z,101962.29
2018-09-01T15:21:56.799Z,101952.17
2018-09-01T15:24:24.993Z,101945.39
2018-09-01T15:26:52.440Z,101958.94
2018-09-01T15:29:20.140Z,101965.92
2018-09-01T15:31:47.628Z,101960.58
2018-09-01T15:34:14.305Z,101967.61
2018-09-01T15:36:41.948Z,101967.12
2018-09-01T15:39:08.586Z,101973.29
2018-09-01T15:41:35.231Z,101974.75
2018-09-01T15:44:02.633Z,101971.12
2018-09-01T15:46:29.376Z,101979.20
2018-09-01T15:48:56.112Z,101981.86
2018-09-01T15:51:23.725Z,101973.03
2018-09-01T15:53:51.498Z,101980.17
2018-09-01T15:56:19.441Z,101977.77
2018-09-01T15:58:46.073Z,101978.71
2018-09-01T16:01:12.713Z,101984.88
2018-09-01T16:03:40.233Z,101983.19
2018-09-01T16:06:10.129Z,101985.98
2018-09-01T16:08:37.549Z,101989.13
2018-09-01T16:11:04.406Z,101990.94
2018-09-01T16:13:31.068Z,101998.53
2018-09-01T16:15:57.717Z,101996.00
2018-09-01T16:18:25.298Z,101994.80
2018-09-01T16:20:51.924Z,101997.11
2018-09-01T16:23:19.723Z,102000.34
2018-09-01T16:25:46.438Z,102000.83
2018-09-01T16:28:13.180Z,101996.36
2018-09-01T16:30:39.824Z,102000.34
2018-09-01T16:33:06.573Z,102002.16
2018-09-01T16:35:33.190Z,102005.66
2018-09-01T16:37:59.831Z,102011.20
2018-09-01T16:40:26.501Z,102007.22
2018-09-01T16:42:53.172Z,102009.87
2018-09-01T16:45:21.002Z,102006.98
2018-09-01T16:47:47.760Z,102004.20
2018-09-01T16:50:15.348Z,102006.86
2018-09-01T16:52:42.987Z,102009.52
2018-09-01T16:55:10.607Z,102012.30
2018-09-01T16:57:38.309Z,102012.30
2018-09-01T17:00:06.070Z,102014.22
2018-09-01T17:02:32.700Z,102016.03
2018-09-01T17:05:00.444Z,102020.41
2018-09-01T17:07:29.255Z,102020.87
2018-09-01T17:09:56.737Z,102022.20
2018-09-01T17:12:24.276Z,102030.30
2018-09-01T17:14:51.668Z,102029.59
2018-09-01T17:17:20.901Z,102035.00
2018-09-01T17:19:49.790Z,102036.09
2018-09-01T17:22:16.425Z,102038.76
2018-09-01T17:24:43.153Z,102041.77
2018-09-01T17:27:09.921Z,102039.95
2018-09-01T17:29:36.608Z,102050.47
2018-09-01T17:32:04.210Z,102047.94
2018-09-01T17:34:30.900Z,102049.39
2018-09-01T17:36:58.349Z,102051.44
2018-09-01T17:39:26.119Z,102054.58
2018-09-01T17:41:52.761Z,102056.52
2018-09-01T17:44:20.244Z,102064.37
2018-09-01T17:46:47.839Z,102058.31
2018-09-01T17:49:14.536Z,102065.34
2018-09-01T17:51:41.172Z,102063.17
2018-09-01T17:54:07.800Z,102062.06
2018-09-01T17:56:35.504Z,102060.25
2018-09-01T17:59:02.114Z,102063.03
2018-09-01T18:01:29.401Z,102060.73
2018-09-01T18:03:57.486Z,102060.73
2018-09-01T18:06:26.101Z,102061.80
2018-09-01T18:08:52.817Z,102060.11
2018-09-01T18:11:20.419Z,102069.41
2018-09-01T18:13:47.357Z,102070.16
2018-09-01T18:16:14.096Z,102072.93
2018-09-01T18:18:41.604Z,102069.69
2018-09-01T18:21:08.276Z,102073.20
2018-09-01T18:23:34.917Z,102076.48
2018-09-01T18:26:02.923Z,102076.02
2018-09-01T18:28:29.947Z,102076.99
2018-09-01T18:30:57.479Z,102076.64
2018-09-01T18:33:24.117Z,102078.11
2018-09-01T18:35:51.667Z,102083.33
2018-09-01T18:38:19.440Z,102086.22
2018-09-01T18:40:47.001Z,102083.59
2018-09-01T18:43:14.333Z,102087.23
2018-09-01T18:45:44.694Z,102094.95
2018-09-01T18:48:11.521Z,102094.20
2018-09-01T18:50:38.222Z,102093.72
2018-09-01T18:53:06.216Z,102098.45
2018-09-01T18:55:32.875Z,102095.30
2018-09-01T18:58:00.372Z,102092.15
2018-09-01T19:00:28.004Z,102095.30
2018-09-01T19:02:56.251Z,102098.19
2018-09-01T19:05:23.850Z,102101.81
2018-09-01T19:07:51.444Z,102105.68
2018-09-01T19:10:18.197Z,102101.55
2018-09-01T19:12:45.908Z,102103.02
2018-09-01T19:15:12.696Z,102103.73
2018-09-01T19:17:39.346Z,102106.39
2018-09-01T19:20:06.025Z,102105.32
2018-09-01T19:22:32.658Z,102110.38
2018-09-01T19:24:59.353Z,102108.11
2018-09-01T19:27:27.640Z,102111.13
2018-09-01T19:29:55.880Z,102104.34
2018-09-01T19:32:22.520Z,102107.97
2018-09-01T19:34:50.421Z,102105.41
2018-09-01T19:37:17.104Z,102105.53
2018-09-01T19:39:43.752Z,102104.56
2018-09-01T19:42:10.526Z,102107.22
2018-09-01T19:44:37.237Z,102108.55
2018-09-01T19:47:04.096Z,102111.70
2018-09-01T19:49:30.812Z,102111.83
2018-09-01T19:51:57.458Z,102111.08
2018-09-01T19:54:24.165Z,102115.91
2018-09-01T19:56:50.800Z,102115.81
2018-09-01T19:59:17.495Z,102118.11
2018-09-01T20:01:44.188Z,102111.56
2018-09-01T20:04:10.829Z,102120.38
2018-09-01T20:06:37.473Z,102116.03
2018-09-01T20:09:04.901Z,102115.55
2018-09-01T20:11:31.545Z,102118.70
2018-09-01T20:13:58.271Z,102121.84
2018-09-01T20:16:25.799Z,102125.11
2018-09-01T20:18:52.499Z,102123.78
2018-09-01T20:21:19.476Z,102128.34
2018-09-01T20:23:46.253Z,102122.05
2018-09-01T20:26:12.921Z,102125.11
2018-09-01T20:28:39.597Z,102116.25
2018-09-01T20:31:06.373Z,102122.05
2018-09-01T20:33:33.087Z,102114.69
2018-09-01T20:35:59.759Z,102121.83
2018-09-01T20:38:27.900Z,102119.88
2018-09-01T20:40:55.996Z,102122.55
2018-09-01T20:43:25.763Z,102121.34
2018-09-01T20:45:52.583Z,102123.86
2018-09-01T20:48:20.188Z,102123.98
2018-09-01T20:50:51.732Z,102130.86
2018-09-01T20:53:19.937Z,102133.29
2018-09-01T20:55:48.113Z,102122.17
2018-09-01T20:58:14.937Z,102124.08
2018-09-01T21:00:41.592Z,102129.78
2018-09-01T21:03:09.028Z,102127.48
2018-09-01T21:05:35.779Z,102126.25
2018-09-01T21:08:05.986Z,102132.45
2018-09-01T21:10:32.673Z,102139.31
2018-09-01T21:12:59.380Z,102140.73
2018-09-01T21:15:26.114Z,102137.23
2018-09-01T21:17:53.764Z,102142.33
2018-09-01T21:20:20.444Z,102145.34
2018-09-01T21:22:47.168Z,102149.34
2018-09-01T21:25:13.832Z,102148.98
2018-09-01T21:27:40.487Z,102150.04
2018-09-01T21:30:07.256Z,102152.24
2018-09-01T21:32:34.065Z,102155.27
2018-09-01T21:35:01.753Z,102159.47
2018-09-01T21:37:28.425Z,102148.59
2018-09-01T21:39:56.064Z,102145.81
2018-09-01T21:42:23.566Z,102141.95
2018-09-01T21:44:51.041Z,102144.22
2018-09-01T21:47:19.812Z,102141.47
2018-09-01T21:49:47.441Z,102148.81
2018-09-01T21:52:15.154Z,102141.80
2018-09-01T21:54:41.808Z,102143.71
2018-09-01T21:57:08.686Z,102140.08
2018-09-01T21:59:35.417Z,102151.47
2018-09-01T22:02:07.842Z,102152.44
2018-09-01T22:04:40.962Z,102147.82
2018-09-01T22:07:08.600Z,102145.37
2018-09-01T22:09:35.313Z,102139.63
2018-09-01T22:12:02.025Z,102138.53
2018-09-01T22:14:28.761Z,102138.18
2018-09-01T22:16:56.611Z,102138.66
2018-09-01T22:19:23.268Z,102137.42
2018-09-01T22:21:50.992Z,102141.89
2018-09-01T22:24:19.433Z,102142.87
2018-09-01T22:26:46.088Z,102139.14
2018-09-01T22:29:12.743Z,102141.68
2018-09-01T22:31:39.381Z,102135.25
2018-09-01T22:34:06.022Z,102133.08
2018-09-01T22:36:33.572Z,102137.06
2018-09-01T22:39:01.196Z,102136.22
2018-09-01T22:41:28.665Z,102135.37
2018-09-01T22:43:56.573Z,102132.50
2018-09-01T22:46:23.241Z,102132.02
2018-09-01T22:48:50.738Z,102133.22
2018-09-01T22:51:17.368Z,102133.22
2018-09-01T22:53:44.149Z,102131.53
2018-09-01T22:56:10.799Z,102134.19
2018-09-01T22:58:37.462Z,102135.73
2018-09-01T23:01:04.247Z,102129.45
2018-09-01T23:03:30.904Z,102132.84
2018-09-01T23:05:58.477Z,102130.55
2018-09-01T23:08:26.048Z,102126.28
2018-09-01T23:10:52.720Z,102128.37
2018-09-01T23:13:20.809Z,102128.85
2018-09-01T23:15:48.174Z,102123.05
2018-09-01T23:18:14.824Z,102132.09
2018-09-01T23:20:41.533Z,102132.36
2018-09-01T23:23:08.481Z,102135.73
2018-09-01T23:25:36.121Z,102130.18
2018-09-01T23:28:02.813Z,102123.75
2018-09-01T23:30:30.541Z,102126.67
2018-09-01T23:32:58.064Z,102123.27
2018-09-01T23:35:25.828Z,102120.03
2018-09-01T23:37:53.525Z,102119.77
2018-09-01T23:40:20.179Z,102122.42
2018-09-01T23:42:47.848Z,102127.25
2018-09-01T23:45:14.541Z,102127.13
2018-09-01T23:47:41.182Z,102128.37
2018-09-01T23:50:08.760Z,102128.58
2018-09-01T23:52:35.412Z,102126.77
2018-09-01T23:55:02.153Z,102128.22
2018-09-01T23:57:29.824Z,102128.56
2018-09-01T23:59:57.534Z,102128.78
